Time;durP1;ratioP1;P1;durP2;ratioP2;P2;SDS_P1;SDS_P2;PMS_P1;PMS_P2;Temp;Humidity;BMP_temperature;BMP_pressure;BME280_temperature;BME280_humidity;BME280_pressure;Samples;Min_cycle;Max_cycle;Signal;HPM_P1;HPM_P2
2021/12/09 00:01:22;;;;;;;7.33;3.17;;;;;2.70;99698.00;;;;10471360;28;20197;-78
2021/12/09 00:06:05;;;;;;;7.87;3.60;;;;;2.60;99689.00;;;;10479736;28;20194;-78
2021/12/09 00:11:07;;;;;;;8.13;3.70;;;;;2.50;99680.00;;;;10528837;28;20262;-78
2021/12/09 00:16:09;;;;;;;8.80;3.87;;;;;2.40;99681.00;;;;10537456;28;20705;-78
2021/12/09 00:21:11;;;;;;;12.63;4.40;;;;;2.30;99677.00;;;;10554297;28;20246;-78
2021/12/09 00:26:13;;;;;;;9.30;3.63;;;;;2.30;99674.00;;;;10536845;28;20241;-78
2021/12/09 00:31:17;;;;;;;10.50;4.13;;;;;2.30;99674.00;;;;10552629;28;20251;-78
2021/12/09 00:36:27;;;;;;;5.93;3.70;;;;;2.40;99672.00;;;;10512631;28;20192;-78
2021/12/09 00:41:29;;;;;;;9.07;3.60;;;;;2.30;99674.00;;;;10511899;28;20177;-78
2021/12/09 00:46:31;;;;;;;7.97;3.60;;;;;2.30;99679.00;;;;10511541;28;20188;-78
2021/12/09 00:51:33;;;;;;;7.50;3.23;;;;;2.20;99673.00;;;;10505410;28;20691;-78
2021/12/09 00:56:35;;;;;;;8.63;3.57;;;;;2.20;99673.00;;;;10489863;28;20559;-78
2021/12/09 01:01:37;;;;;;;12.53;3.37;;;;;2.20;99670.00;;;;10494890;28;20199;-77
2021/12/09 01:06:39;;;;;;;10.73;3.30;;;;;2.00;99662.00;;;;10494534;28;20193;-78
2021/12/09 01:11:41;;;;;;;10.13;3.80;;;;;1.90;99664.00;;;;10489951;28;20248;-77
2021/12/09 01:16:43;;;;;;;13.17;3.67;;;;;1.90;99667.00;;;;10490506;28;20229;-78
2021/12/09 01:21:45;;;;;;;8.53;3.37;;;;;1.90;99683.00;;;;10493601;28;20203;-77
2021/12/09 01:26:49;;;;;;;5.67;3.23;;;;;1.90;99682.00;;;;10476536;28;20196;-78
2021/12/09 01:31:58;;;;;;;5.90;2.53;;;;;1.80;99692.00;;;;10492821;28;20248;-77
2021/12/09 01:37:00;;;;;;;6.17;2.83;;;;;1.80;99698.00;;;;10467960;28;20284;-77
2021/12/09 01:42:03;;;;;;;10.20;3.30;;;;;1.80;99689.00;;;;10491123;28;20205;-78
2021/12/09 01:47:05;;;;;;;9.43;2.80;;;;;1.80;99696.00;;;;10508956;28;20217;-78
2021/12/09 01:52:07;;;;;;;6.17;2.83;;;;;1.80;99698.00;;;;10492294;28;20196;-78
2021/12/09 01:57:09;;;;;;;10.17;2.40;;;;;1.80;99700.00;;;;10508825;28;20283;-77
2021/12/09 02:02:10;;;;;;;5.40;2.40;;;;;1.90;99701.00;;;;10508274;28;20299;-78
2021/12/09 02:07:13;;;;;;;5.83;2.93;;;;;1.90;99693.00;;;;10508006;28;20199;-77
2021/12/09 02:12:15;;;;;;;7.60;2.53;;;;;2.00;99712.00;;;;10475187;28;20254;-78
2021/12/09 02:17:17;;;;;;;5.07;2.30;;;;;2.00;99707.00;;;;10490981;28;20196;-77
2021/12/09 02:22:19;;;;;;;6.50;2.70;;;;;2.00;99701.00;;;;10481380;28;20308;-78
2021/12/09 02:27:23;;;;;;;7.37;2.37;;;;;1.90;99708.00;;;;10507455;28;20285;-78
2021/12/09 02:32:25;;;;;;;6.97;2.40;;;;;1.90;99712.00;;;;10507083;28;20299;-78
2021/12/09 02:37:27;;;;;;;5.67;2.20;;;;;1.90;99703.00;;;;10488084;28;20220;-78
2021/12/09 02:42:29;;;;;;;6.73;2.47;;;;;1.80;99704.00;;;;10482433;28;20205;-78
2021/12/09 02:47:31;;;;;;;4.00;1.80;;;;;1.70;99696.00;;;;10465422;28;20649;-78
2021/12/09 02:52:33;;;;;;;7.43;2.93;;;;;1.70;99706.00;;;;10510206;28;20203;-78
2021/12/09 02:57:35;;;;;;;7.30;2.37;;;;;1.70;99713.00;;;;10514754;28;20652;-78
2021/12/09 03:02:37;;;;;;;5.83;2.10;;;;;1.70;99713.00;;;;10531363;28;20227;-78
2021/12/09 03:07:41;;;;;;;7.80;2.00;;;;;1.70;99711.00;;;;10527385;28;20295;-78
2021/12/09 03:12:44;;;;;;;3.80;1.70;;;;;1.60;99719.00;;;;10489079;28;20193;-77
2021/12/09 03:17:47;;;;;;;7.37;2.40;;;;;1.60;99725.00;;;;10473218;28;20280;-78
2021/12/09 03:22:49;;;;;;;14.40;2.53;;;;;1.70;99727.00;;;;10489272;28;20185;-77
2021/12/09 03:27:52;;;;;;;9.10;2.30;;;;;1.70;99721.00;;;;10489173;28;20712;-77
2021/12/09 03:32:56;;;;;;;6.73;2.63;;;;;1.60;99725.00;;;;10489044;28;20239;-78
2021/12/09 03:37:59;;;;;;;7.90;2.60;;;;;1.60;99724.00;;;;10456224;28;20197;-78
2021/12/09 03:43:02;;;;;;;5.60;2.20;;;;;1.60;99737.00;;;;10464003;28;20221;-78
2021/12/09 03:48:04;;;;;;;6.97;2.27;;;;;1.60;99726.00;;;;10464429;28;20292;-78
2021/12/09 03:53:06;;;;;;;5.80;2.30;;;;;1.70;99733.00;;;;10481003;28;20196;-78
2021/12/09 03:58:08;;;;;;;10.10;2.90;;;;;1.70;99733.00;;;;10461753;28;20610;-78
2021/12/09 04:03:10;;;;;;;8.23;2.87;;;;;1.90;99739.00;;;;10463844;28;20607;-77
2021/12/09 04:08:12;;;;;;;7.50;2.57;;;;;2.00;99749.00;;;;10440694;28;20213;-78
2021/12/09 04:13:14;;;;;;;7.97;2.83;;;;;2.10;99743.00;;;;10513002;28;20330;-77
2021/12/09 04:18:16;;;;;;;8.87;2.93;;;;;2.10;99745.00;;;;10513448;28;20189;-77
2021/12/09 04:23:18;;;;;;;10.87;3.33;;;;;2.10;99747.00;;;;10512787;28;20184;-77
2021/12/09 04:28:20;;;;;;;7.53;3.60;;;;;2.10;99744.00;;;;10495785;28;20216;-77
2021/12/09 04:33:22;;;;;;;8.40;3.00;;;;;2.10;99742.00;;;;10495473;28;20588;-78
2021/12/09 04:38:25;;;;;;;11.50;3.77;;;;;2.00;99746.00;;;;10484463;28;20267;-78
2021/12/09 04:43:27;;;;;;;10.50;3.77;;;;;2.00;99743.00;;;;10453159;28;20262;-77
2021/12/09 04:48:29;;;;;;;8.97;3.37;;;;;1.90;99747.00;;;;10470110;28;20221;-77
2021/12/09 04:53:32;;;;;;;10.77;3.70;;;;;1.90;99746.00;;;;10502526;28;20216;-77
2021/12/09 04:58:34;;;;;;;8.30;3.30;;;;;1.90;99749.00;;;;10485642;28;20242;-78
2021/12/09 05:03:36;;;;;;;8.27;3.43;;;;;1.90;99754.00;;;;10501946;28;20194;-78
2021/12/09 05:08:44;;;;;;;8.97;3.30;;;;;2.00;99764.00;;;;10497971;28;20281;-77
2021/12/09 05:13:46;;;;;;;7.97;3.30;;;;;2.10;99769.00;;;;10493819;28;20630;-78
2021/12/09 05:18:50;;;;;;;12.50;3.80;;;;;2.20;99775.00;;;;10476605;28;20218;-78
2021/12/09 05:23:52;;;;;;;10.70;3.80;;;;;2.30;99776.00;;;;10493900;28;20242;-78
2021/12/09 05:28:56;;;;;;;9.93;2.93;;;;;2.40;99772.00;;;;10492922;28;20224;-78
2021/12/09 05:33:59;;;;;;;9.40;4.20;;;;;2.40;99774.00;;;;10452160;28;20320;-78
2021/12/09 05:39:02;;;;;;;3.93;2.40;;;;;2.40;99777.00;;;;10483009;28;20602;-78
2021/12/09 05:44:05;;;;;;;6.70;3.63;;;;;2.40;99783.00;;;;10509021;28;20725;-78
2021/12/09 05:49:08;;;;;;;6.53;3.00;;;;;2.40;99781.00;;;;10492258;28;20683;-77
2021/12/09 05:54:11;;;;;;;13.47;3.37;;;;;2.40;99784.00;;;;10508971;28;20218;-78
2021/12/09 05:59:13;;;;;;;7.17;3.07;;;;;2.40;99789.00;;;;10492031;28;20193;-77
2021/12/09 06:04:15;;;;;;;8.53;3.43;;;;;2.50;99796.00;;;;10475615;28;20319;-78
2021/12/09 06:09:17;;;;;;;8.03;2.97;;;;;2.50;99797.00;;;;10491585;28;20220;-78
2021/12/09 06:14:19;;;;;;;11.13;3.53;;;;;2.60;99806.00;;;;10475440;28;20288;-78
2021/12/09 06:19:21;;;;;;;6.63;3.03;;;;;2.70;99807.00;;;;10474588;28;20207;-77
2021/12/09 06:24:23;;;;;;;12.73;3.50;;;;;2.80;99809.00;;;;10507439;28;20200;-78
2021/12/09 06:29:25;;;;;;;12.13;3.10;;;;;2.90;99804.00;;;;10507380;28;20256;-77
2021/12/09 06:34:27;;;;;;;10.63;2.93;;;;;2.90;99811.00;;;;10490094;28;20216;-77
2021/12/09 06:39:29;;;;;;;9.33;2.33;;;;;3.00;99809.00;;;;10490359;28;20197;-78
2021/12/09 06:44:31;;;;;;;6.17;2.57;;;;;3.00;99800.00;;;;10473352;28;20620;-78
2021/12/09 06:49:33;;;;;;;7.37;2.43;;;;;3.00;99795.00;;;;10490431;28;20220;-78
2021/12/09 06:54:34;;;;;;;6.70;2.40;;;;;3.00;99790.00;;;;10535877;28;20199;-77
2021/12/09 06:59:37;;;;;;;13.90;2.33;;;;;3.00;99793.00;;;;10531230;28;20192;-78
2021/12/09 07:04:38;;;;;;;5.87;2.57;;;;;3.10;99785.00;;;;10530738;28;20195;-78
2021/12/09 07:09:41;;;;;;;6.30;2.10;;;;;3.00;99788.00;;;;10492472;28;20271;-78
2021/12/09 07:14:43;;;;;;;7.27;2.60;;;;;3.00;99788.00;;;;10522205;28;20262;-77
2021/12/09 07:19:45;;;;;;;10.07;2.80;;;;;3.10;99789.00;;;;10488709;28;20231;-78
2021/12/09 07:24:47;;;;;;;10.43;3.10;;;;;3.20;99794.00;;;;10505080;28;20201;-78
2021/12/09 07:29:49;;;;;;;5.43;3.43;;;;;3.30;99794.00;;;;10504765;28;20252;-78
2021/12/09 07:34:51;;;;;;;10.73;3.10;;;;;3.30;99812.00;;;;10504827;28;20223;-78
2021/12/09 07:39:53;;;;;;;7.87;3.60;;;;;3.40;99811.00;;;;10505924;28;20645;-78
2021/12/09 07:44:54;;;;;;;7.17;3.27;;;;;3.40;99821.00;;;;10512842;28;20197;-78
2021/12/09 07:49:56;;;;;;;7.20;3.10;;;;;3.50;99834.00;;;;10479209;28;20630;-79
2021/12/09 07:54:58;;;;;;;7.63;3.77;;;;;3.60;99828.00;;;;10480084;28;20241;-78
2021/12/09 08:00:00;;;;;;;6.73;3.77;;;;;3.60;99829.00;;;;10495614;28;20197;-79
2021/12/09 08:05:13;;;;;;;8.83;4.00;;;;;3.70;99826.00;;;;10496814;28;20219;-79
2021/12/09 08:10:17;;;;;;;10.27;4.00;;;;;3.70;99826.00;;;;10548526;28;20255;-78
2021/12/09 08:15:19;;;;;;;6.50;3.80;;;;;3.70;99836.00;;;;10519433;28;20188;-78
2021/12/09 08:20:21;;;;;;;8.40;3.30;;;;;3.80;99837.00;;;;10536511;28;20177;-78
2021/12/09 08:25:25;;;;;;;8.50;3.97;;;;;3.80;99842.00;;;;10527977;28;20192;-78
2021/12/09 08:30:27;;;;;;;6.90;3.97;;;;;3.80;99846.00;;;;10552796;28;20216;-78
2021/12/09 08:35:50;;;;;;;6.07;3.90;;;;;3.90;99864.00;;;;10502273;28;20209;-78
2021/12/09 08:40:53;;;;;;;8.00;3.93;;;;;3.90;99857.00;;;;10469395;28;20201;-78
2021/12/09 08:45:56;;;;;;;7.17;3.97;;;;;4.00;99866.00;;;;10461146;28;20221;-79
2021/12/09 08:50:58;;;;;;;4.60;3.67;;;;;4.00;99856.00;;;;10484465;28;20222;-79
2021/12/09 08:56:00;;;;;;;7.60;4.17;;;;;4.00;99863.00;;;;10502712;28;20212;-79
2021/12/09 09:01:04;;;;;;;6.83;3.40;;;;;3.90;99867.00;;;;10469038;28;20263;-79
2021/12/09 09:06:06;;;;;;;4.53;3.00;;;;;3.90;99864.00;;;;10468249;28;20243;-79
2021/12/09 09:11:08;;;;;;;7.03;4.00;;;;;3.90;99869.00;;;;10543607;28;20698;-79
2021/12/09 09:16:10;;;;;;;7.13;3.70;;;;;4.00;99858.00;;;;10519036;28;20651;-79
2021/12/09 09:21:13;;;;;;;3.53;2.57;;;;;4.00;99868.00;;;;10535805;28;20177;-80
2021/12/09 09:26:15;;;;;;;9.80;3.63;;;;;4.00;99868.00;;;;10518968;28;20200;-79
2021/12/09 09:31:17;;;;;;;4.47;3.17;;;;;4.10;99873.00;;;;10535041;28;20204;-80
2021/12/09 09:36:19;;;;;;;9.37;3.67;;;;;4.10;99884.00;;;;10551284;28;20219;-79
2021/12/09 09:41:24;;;;;;;6.10;2.90;;;;;4.10;99890.00;;;;10482943;28;20196;-79
2021/12/09 09:46:29;;;;;;;3.60;3.03;;;;;4.00;99887.00;;;;10508644;28;20189;-79
2021/12/09 09:51:31;;;;;;;3.77;3.17;;;;;4.00;99898.00;;;;10491781;28;20205;-79
2021/12/09 09:56:35;;;;;;;7.07;5.00;;;;;4.00;99892.00;;;;10491410;28;20226;-79
2021/12/09 10:01:40;;;;;;;6.83;3.87;;;;;4.10;99891.00;;;;10503078;28;20200;-79
2021/12/09 10:06:44;;;;;;;8.13;4.57;;;;;4.20;99881.00;;;;10491017;28;20223;-79
2021/12/09 10:11:46;;;;;;;9.47;4.30;;;;;4.40;99886.00;;;;10448735;28;20213;-79
2021/12/09 10:17:04;;;;;;;7.10;4.67;;;;;4.90;99895.00;;;;10449055;28;20204;-79
2021/12/09 10:22:12;;;;;;;8.30;4.00;;;;;5.30;99891.00;;;;10465423;28;20197;-79
2021/12/09 10:27:24;;;;;;;6.40;4.03;;;;;5.30;99883.00;;;;10432565;28;20315;-79
2021/12/09 10:32:31;;;;;;;10.80;5.93;;;;;5.50;99873.00;;;;10448710;28;20294;-78
2021/12/09 10:37:35;;;;;;;9.60;4.23;;;;;5.80;99873.00;;;;10467606;28;20193;-79
2021/12/09 10:42:51;;;;;;;10.93;5.53;;;;;6.00;99882.00;;;;10522903;28;20235;-79
2021/12/09 10:48:18;;;;;;;8.23;4.57;;;;;6.00;99884.00;;;;10489576;28;20187;-78
2021/12/09 10:58:28;;;;;;;7.03;4.50;;;;;6.40;99899.00;;;;10486542;28;20217;-78
2021/12/09 11:03:42;;;;;;;10.97;5.23;;;;;6.30;99904.00;;;;10476362;28;20208;-78
2021/12/09 11:08:46;;;;;;;11.50;4.63;;;;;6.30;99901.00;;;;10501718;28;20660;-78
2021/12/09 11:14:00;;;;;;;13.03;5.13;;;;;6.30;99887.00;;;;10502577;28;20197;-79
2021/12/09 11:19:12;;;;;;;10.23;4.67;;;;;6.20;99881.00;;;;10507558;28;20207;-78
2021/12/09 11:24:18;;;;;;;10.10;4.80;;;;;6.20;99872.00;;;;10525939;28;20256;-78
2021/12/09 11:29:31;;;;;;;10.50;5.13;;;;;6.30;99864.00;;;;10556799;28;20255;-79
2021/12/09 11:35:05;;;;;;;11.97;4.83;;;;;6.20;99860.00;;;;10487665;28;20212;-78
2021/12/09 11:40:07;;;;;;;14.47;4.97;;;;;6.20;99855.00;;;;10515732;28;20234;-79
2021/12/09 11:45:12;;;;;;;10.93;4.97;;;;;6.30;99859.00;;;;10517040;28;20556;-78
2021/12/09 11:50:17;;;;;;;12.90;4.77;;;;;6.30;99855.00;;;;10507321;28;20216;-78
2021/12/09 11:55:25;;;;;;;12.43;5.83;;;;;6.40;99858.00;;;;10479498;28;20205;-78
2021/12/09 12:06:52;;;;;;;11.37;5.97;;;;;6.20;99853.00;;;;10504277;28;20235;-78
2021/12/09 12:11:55;;;;;;;10.23;5.53;;;;;6.20;99841.00;;;;10527024;28;20208;-78
2021/12/09 12:17:15;;;;;;;8.37;5.50;;;;;6.40;99836.00;;;;10518411;28;20208;-77
2021/12/09 12:28:47;;;;;;;11.83;6.00;;;;;6.90;99837.00;;;;10493398;28;20197;-79
2021/12/09 12:39:16;;;;;;;20.67;6.07;;;;;7.10;99842.00;;;;10544943;28;20644;-78
2021/12/09 12:44:20;;;;;;;16.67;5.87;;;;;7.30;99847.00;;;;10508580;28;20199;-78
2021/12/09 12:49:31;;;;;;;11.10;4.70;;;;;7.30;99862.00;;;;10510299;28;20211;-78
2021/12/09 12:55:06;;;;;;;10.40;4.70;;;;;7.20;99844.00;;;;10458645;28;20196;-78
2021/12/09 13:00:15;;;;;;;11.50;5.30;;;;;7.30;99836.00;;;;10518649;28;20572;-78
2021/12/09 13:05:34;;;;;;;11.67;5.07;;;;;7.50;99840.00;;;;10468461;28;20235;-77
2021/12/09 13:10:52;;;;;;;11.20;5.10;;;;;7.30;99837.00;;;;10529721;28;20204;-77
2021/12/09 13:16:16;;;;;;;14.03;5.10;;;;;7.30;99833.00;;;;10518057;28;20651;-78
2021/12/09 13:21:35;;;;;;;11.77;5.83;;;;;7.20;99832.00;;;;10518524;28;20188;-77
2021/12/09 13:27:05;;;;;;;11.97;5.73;;;;;7.10;99827.00;;;;10534003;28;20204;-78
2021/12/09 13:32:27;;;;;;;14.03;6.27;;;;;6.80;99844.00;;;;10516996;28;20263;-78
2021/12/09 13:37:55;;;;;;;14.57;5.73;;;;;6.70;99840.00;;;;10547362;28;20603;-78
2021/12/09 13:48:25;;;;;;;12.80;4.93;;;;;6.60;99842.00;;;;10491184;28;20201;-79
2021/12/09 13:58:53;;;;;;;9.90;4.50;;;;;6.60;99843.00;;;;10507446;28;20184;-78
2021/12/09 14:03:54;;;;;;;19.03;5.73;;;;;6.60;99837.00;;;;10491176;28;20663;-78
2021/12/09 14:08:57;;;;;;;10.77;4.97;;;;;6.40;99847.00;;;;10490396;28;20541;-79
2021/12/09 14:14:13;;;;;;;14.93;5.57;;;;;6.30;99844.00;;;;10491110;28;20185;-79
2021/12/09 14:24:55;;;;;;;17.23;5.63;;;;;6.10;99831.00;;;;10481452;28;20259;-78
2021/12/09 14:29:58;;;;;;;12.13;4.90;;;;;6.10;99841.00;;;;10481024;28;20205;-79
2021/12/09 14:35:03;;;;;;;14.57;4.90;;;;;6.10;99831.00;;;;10465302;28;20262;-80
2021/12/09 14:40:19;;;;;;;18.77;5.73;;;;;6.30;99825.00;;;;10464694;28;20280;-80
2021/12/09 14:45:22;;;;;;;15.77;5.73;;;;;6.30;99825.00;;;;10448731;28;20198;-80
2021/12/09 14:50:34;;;;;;;16.47;5.57;;;;;6.00;99826.00;;;;10447029;28;20231;-79
2021/12/09 14:55:51;;;;;;;15.13;6.60;;;;;5.90;99831.00;;;;10433749;28;20861;-79
2021/12/09 15:01:01;;;;;;;14.73;5.40;;;;;5.90;99822.00;;;;10465996;28;20197;-79
2021/12/09 15:06:05;;;;;;;17.10;6.23;;;;;5.90;99817.00;;;;10505780;28;20196;-79
2021/12/09 15:11:10;;;;;;;16.20;7.50;;;;;5.90;99811.00;;;;10488444;28;20243;-79
2021/12/09 15:16:17;;;;;;;19.43;6.77;;;;;5.90;99802.00;;;;10477083;28;20675;-78
2021/12/09 15:21:23;;;;;;;18.37;5.87;;;;;5.90;99794.00;;;;10504954;28;20552;-79
2021/12/09 15:26:33;;;;;;;15.90;6.03;;;;;5.80;99798.00;;;;10480524;28;20197;-79
2021/12/09 15:31:39;;;;;;;15.77;7.13;;;;;5.80;99790.00;;;;10505165;28;20193;-79
2021/12/09 15:36:42;;;;;;;13.57;6.90;;;;;5.70;99787.00;;;;10488068;28;20228;-79
2021/12/09 15:41:47;;;;;;;11.27;6.33;;;;;5.50;99793.00;;;;10463801;28;20220;-79
2021/12/09 15:46:57;;;;;;;15.03;6.77;;;;;5.50;99798.00;;;;10445483;28;20538;-79
2021/12/09 15:52:02;;;;;;;17.53;7.33;;;;;5.50;99794.00;;;;10465112;28;20217;-79
2021/12/09 15:57:09;;;;;;;19.83;7.10;;;;;5.50;99809.00;;;;10504582;28;20254;-79
2021/12/09 16:02:17;;;;;;;15.53;7.07;;;;;5.50;99803.00;;;;10496057;28;20236;-79
2021/12/09 16:07:19;;;;;;;15.03;6.50;;;;;5.50;99800.00;;;;10479329;28;20200;-79
2021/12/09 16:12:26;;;;;;;10.53;6.70;;;;;5.50;99798.00;;;;10511382;28;20215;-78
2021/12/09 16:17:33;;;;;;;14.03;5.90;;;;;5.60;99802.00;;;;10510134;28;20290;-79
2021/12/09 16:22:35;;;;;;;14.33;5.83;;;;;5.60;99799.00;;;;10476119;28;20177;-78
2021/12/09 16:27:43;;;;;;;16.70;6.77;;;;;5.50;99798.00;;;;10512744;28;20218;-78
2021/12/09 16:32:49;;;;;;;16.17;6.47;;;;;5.40;99788.00;;;;10499569;28;20691;-78
2021/12/09 16:37:52;;;;;;;13.47;6.40;;;;;5.40;99782.00;;;;10493401;28;20216;-78
2021/12/09 16:42:55;;;;;;;19.37;6.83;;;;;5.30;99787.00;;;;10487412;28;20223;-77
2021/12/09 16:47:58;;;;;;;17.50;6.20;;;;;5.10;99780.00;;;;10510417;28;20204;-78
2021/12/09 16:53:05;;;;;;;15.83;5.60;;;;;5.10;99782.00;;;;10517286;28;20204;-78
2021/12/09 16:58:07;;;;;;;12.83;5.37;;;;;5.00;99782.00;;;;10506375;28;20196;-78
2021/12/09 17:03:10;;;;;;;15.73;4.30;;;;;5.00;99779.00;;;;10468091;28;20563;-78
2021/12/09 17:08:12;;;;;;;13.03;4.57;;;;;5.00;99776.00;;;;10492945;28;20222;-78
2021/12/09 17:13:14;;;;;;;18.87;4.70;;;;;5.00;99776.00;;;;10490781;28;20201;-78
2021/12/09 17:18:16;;;;;;;12.77;4.23;;;;;5.00;99771.00;;;;10474422;28;20215;-78
2021/12/09 17:23:18;;;;;;;12.47;4.03;;;;;5.00;99768.00;;;;10525069;28;20246;-78
2021/12/09 17:28:21;;;;;;;9.00;4.13;;;;;4.90;99776.00;;;;10478401;28;20251;-78
2021/12/09 17:33:27;;;;;;;13.73;4.57;;;;;4.90;99771.00;;;;10474157;28;20217;-78
2021/12/09 17:38:29;;;;;;;15.37;4.63;;;;;4.70;99762.00;;;;10485094;28;21036;-78
2021/12/09 17:43:31;;;;;;;16.07;4.70;;;;;4.60;99767.00;;;;10473525;28;20185;-78
2021/12/09 17:48:33;;;;;;;13.97;4.73;;;;;4.50;99772.00;;;;10507560;28;20181;-78
2021/12/09 17:53:35;;;;;;;17.73;4.97;;;;;4.40;99780.00;;;;10490707;28;20212;-78
2021/12/09 17:58:38;;;;;;;13.47;4.83;;;;;4.30;99778.00;;;;10484193;28;20200;-78
2021/12/09 18:03:40;;;;;;;12.70;4.53;;;;;4.30;99773.00;;;;10467766;28;20197;-78
2021/12/09 18:08:43;;;;;;;18.70;5.27;;;;;4.20;99775.00;;;;10467103;28;20202;-78
2021/12/09 18:13:46;;;;;;;16.83;5.77;;;;;4.10;99770.00;;;;10462199;28;20221;-79
2021/12/09 18:18:48;;;;;;;15.73;5.90;;;;;4.00;99769.00;;;;10520289;28;20271;-78
2021/12/09 18:23:51;;;;;;;16.27;5.03;;;;;3.90;99776.00;;;;10497995;28;20194;-78
2021/12/09 18:28:53;;;;;;;11.33;5.07;;;;;3.90;99762.00;;;;10508056;28;20196;-78
2021/12/09 18:33:56;;;;;;;18.13;5.70;;;;;3.90;99757.00;;;;10488929;28;20262;-78
2021/12/09 18:38:59;;;;;;;16.77;5.27;;;;;4.00;99755.00;;;;10479097;28;20191;-78
2021/12/09 18:44:01;;;;;;;10.33;4.20;;;;;4.10;99760.00;;;;10480381;28;20510;-78
2021/12/09 18:49:04;;;;;;;20.13;5.17;;;;;4.10;99757.00;;;;10518228;28;20185;-78
2021/12/09 18:54:06;;;;;;;16.87;5.63;;;;;4.00;99755.00;;;;10470291;28;20204;-78
2021/12/09 18:59:09;;;;;;;21.03;5.60;;;;;4.00;99746.00;;;;10465849;28;20181;-78
2021/12/09 19:04:11;;;;;;;17.70;5.53;;;;;3.90;99749.00;;;;10498363;28;20247;-78
2021/12/09 19:09:18;;;;;;;16.00;4.90;;;;;3.90;99733.00;;;;10488080;28;20197;-78
2021/12/09 19:14:21;;;;;;;13.87;4.70;;;;;3.80;99734.00;;;;10480671;28;20209;-78
2021/12/09 19:19:27;;;;;;;12.47;4.57;;;;;3.80;99734.00;;;;10478114;28;20194;-78
2021/12/09 19:24:29;;;;;;;12.30;3.70;;;;;3.70;99712.00;;;;10503812;28;20192;-78
2021/12/09 19:29:31;;;;;;;14.40;3.93;;;;;3.70;99716.00;;;;10472823;28;20193;-78
2021/12/09 19:34:33;;;;;;;7.50;3.07;;;;;3.70;99708.00;;;;10467989;28;20216;-78
2021/12/09 19:39:36;;;;;;;12.30;3.23;;;;;3.70;99694.00;;;;10494050;28;20200;-78
2021/12/09 19:44:38;;;;;;;14.60;4.10;;;;;3.70;99688.00;;;;10509742;28;20270;-78
2021/12/09 19:49:40;;;;;;;14.00;3.10;;;;;3.60;99678.00;;;;10476869;28;20617;-78
2021/12/09 19:54:42;;;;;;;14.40;4.37;;;;;3.60;99663.00;;;;10473532;28;20197;-78
2021/12/09 19:59:45;;;;;;;9.87;3.73;;;;;3.60;99656.00;;;;10459546;28;20574;-78
2021/12/09 20:04:47;;;;;;;16.00;4.07;;;;;3.70;99648.00;;;;10504372;28;20189;-79
2021/12/09 20:09:49;;;;;;;15.47;5.17;;;;;3.60;99646.00;;;;10491223;28;20254;-79
2021/12/09 20:14:51;;;;;;;13.20;4.57;;;;;3.50;99647.00;;;;10488880;28;20217;-78
2021/12/09 20:19:52;;;;;;;11.57;5.30;;;;;3.40;99638.00;;;;10486459;28;20194;-78
2021/12/09 20:24:55;;;;;;;17.53;4.97;;;;;3.30;99622.00;;;;10474848;28;20649;-78
2021/12/09 20:29:57;;;;;;;13.33;4.80;;;;;3.30;99618.00;;;;10473461;28;20219;-78
2021/12/09 20:34:59;;;;;;;12.87;4.80;;;;;3.30;99605.00;;;;10475788;28;20220;-78
2021/12/09 20:40:06;;;;;;;17.03;5.17;;;;;3.20;99583.00;;;;10487384;28;20189;-78
2021/12/09 20:45:10;;;;;;;14.90;5.43;;;;;3.20;99594.00;;;;10509535;28;20185;-78
2021/12/09 20:50:33;;;;;;;13.27;5.00;;;;;3.20;99569.00;;;;10466843;28;20211;-78
2021/12/09 20:55:37;;;;;;;14.90;6.13;;;;;3.20;99554.00;;;;10473583;28;20661;-78
2021/12/09 21:00:41;;;;;;;18.30;7.87;;;;;3.20;99534.00;;;;10499977;28;20209;-78
2021/12/09 21:05:47;;;;;;;15.90;7.60;;;;;3.20;99536.00;;;;10492412;28;20563;-78
2021/12/09 21:10:52;;;;;;;18.33;7.67;;;;;3.20;99520.00;;;;10462164;28;20263;-78
2021/12/09 21:15:55;;;;;;;15.97;8.27;;;;;3.10;99513.00;;;;10483748;28;20198;-77
2021/12/09 21:20:57;;;;;;;19.67;7.43;;;;;3.20;99511.00;;;;10457923;28;20190;-77
2021/12/09 21:26:06;;;;;;;15.40;7.47;;;;;3.20;99495.00;;;;10449998;28;20288;-77
2021/12/09 21:31:30;;;;;;;13.67;6.97;;;;;3.20;99494.00;;;;10469396;28;20207;-78
2021/12/09 21:36:44;;;;;;;23.87;8.33;;;;;3.10;99488.00;;;;10466689;28;20196;-78
2021/12/09 21:41:48;;;;;;;15.47;6.60;;;;;3.00;99487.00;;;;10492962;28;20191;-78
2021/12/09 21:46:51;;;;;;;20.37;8.53;;;;;3.00;99477.00;;;;10473282;28;20193;-78
2021/12/09 21:51:53;;;;;;;18.60;9.13;;;;;2.90;99468.00;;;;10473575;28;20304;-77
2021/12/09 21:56:55;;;;;;;21.57;9.97;;;;;2.90;99464.00;;;;10473282;28;20197;-78
2021/12/09 22:01:57;;;;;;;16.20;9.07;;;;;2.90;99456.00;;;;10482230;28;20651;-78
2021/12/09 22:06:59;;;;;;;20.00;8.93;;;;;2.90;99452.00;;;;10495819;28;20254;-78
2021/12/09 22:12:03;;;;;;;17.23;7.40;;;;;3.00;99445.00;;;;10465184;28;20205;-78
2021/12/09 22:17:05;;;;;;;13.30;9.07;;;;;3.00;99441.00;;;;10471457;28;20243;-77
2021/12/09 22:22:07;;;;;;;19.67;8.33;;;;;3.20;99434.00;;;;10473469;28;20185;-78
2021/12/09 22:27:09;;;;;;;13.87;8.67;;;;;3.30;99411.00;;;;10473031;28;20222;-78
2021/12/09 22:32:11;;;;;;;12.53;8.13;;;;;3.40;99375.00;;;;10489205;28;20221;-78
2021/12/09 22:37:13;;;;;;;11.57;6.97;;;;;3.40;99370.00;;;;10463772;28;20185;-78
2021/12/09 22:42:15;;;;;;;8.87;5.93;;;;;3.40;99348.00;;;;10489330;28;20290;-78
2021/12/09 22:47:19;;;;;;;21.80;7.80;;;;;3.50;99344.00;;;;10489380;28;20201;-77
2021/12/09 22:52:21;;;;;;;13.50;7.63;;;;;3.50;99326.00;;;;10505414;28;20209;-78
2021/12/09 22:57:23;;;;;;;12.60;7.63;;;;;3.50;99312.00;;;;10489066;28;20193;-78
2021/12/09 23:02:25;;;;;;;10.00;6.43;;;;;3.50;99285.00;;;;10511696;28;20856;-77
2021/12/09 23:07:27;;;;;;;19.07;7.63;;;;;3.40;99264.00;;;;10486286;28;20224;-77
2021/12/09 23:12:30;;;;;;;13.30;4.97;;;;;3.40;99260.00;;;;10472363;28;20231;-78
2021/12/09 23:17:38;;;;;;;14.07;6.17;;;;;3.40;99228.00;;;;10487857;28;20192;-78
2021/12/09 23:22:40;;;;;;;13.43;6.37;;;;;3.40;99215.00;;;;10474580;28;20266;-78
2021/12/09 23:27:43;;;;;;;12.83;6.77;;;;;3.30;99210.00;;;;10490316;28;20277;-78
2021/12/09 23:32:46;;;;;;;11.37;5.23;;;;;3.40;99209.00;;;;10481751;28;20217;-77
2021/12/09 23:37:48;;;;;;;14.27;6.13;;;;;3.40;99198.00;;;;10482980;28;20651;-78
2021/12/09 23:42:51;;;;;;;14.03;6.10;;;;;3.40;99173.00;;;;10487800;28;20213;-78
2021/12/09 23:47:53;;;;;;;15.17;6.17;;;;;3.50;99151.00;;;;10487941;28;20239;-78
2021/12/09 23:52:55;;;;;;;10.90;5.17;;;;;3.50;99146.00;;;;10487987;28;20201;-78
2021/12/09 23:57:57;;;;;;;12.70;5.50;;;;;3.60;99131.00;;;;10487661;28;20194;-78
